Terminal Aerodrome Forecast
Issued by NWS Lubbock, TX

Home | Current Version | Previous Version | Text Only | Print | Product List | Glossary On
Versions: 1 2 3 4 5 6 7 8 9 10 11 12 13
626
FTUS44 KLUB 140520
TAFLBB
TAF
KLBB 140520Z 1406/1506 22016KT P6SM FEW250
     FM140900 26013KT P6SM FEW250
     FM141200 01014KT P6SM FEW250
     FM142200 VRB05KT P6SM FEW250=

USA.gov is the U.S. government's official web portal to all federal, state and local government web resources and services.